sensor_id;sensor_type;location;lat;lon;timestamp;P1;durP1;ratioP1;P2;durP2;ratioP2
11642;SDS011;5877;50.930;6.918;2022-12-26T00:00:09;2.10;;;1.70;;
11642;SDS011;5877;50.930;6.918;2022-12-26T00:05:02;2.67;;;2.20;;
11642;SDS011;5877;50.930;6.918;2022-12-26T00:09:54;2.93;;;2.00;;
11642;SDS011;5877;50.930;6.918;2022-12-26T00:14:45;2.30;;;1.90;;
11642;SDS011;5877;50.930;6.918;2022-12-26T00:19:39;3.13;;;1.90;;
11642;SDS011;5877;50.930;6.918;2022-12-26T00:24:31;3.67;;;2.87;;
11642;SDS011;5877;50.930;6.918;2022-12-26T00:29:23;1.60;;;1.33;;
11642;SDS011;5877;50.930;6.918;2022-12-26T00:34:16;4.13;;;2.30;;
11642;SDS011;5877;50.930;6.918;2022-12-26T00:39:08;4.37;;;2.90;;
11642;SDS011;5877;50.930;6.918;2022-12-26T00:43:59;3.63;;;2.00;;
11642;SDS011;5877;50.930;6.918;2022-12-26T00:48:51;2.93;;;1.67;;
11642;SDS011;5877;50.930;6.918;2022-12-26T00:53:43;4.60;;;2.33;;
11642;SDS011;5877;50.930;6.918;2022-12-26T00:58:35;4.20;;;2.50;;
11642;SDS011;5877;50.930;6.918;2022-12-26T01:03:27;4.30;;;1.60;;
11642;SDS011;5877;50.930;6.918;2022-12-26T01:08:18;4.37;;;2.70;;
11642;SDS011;5877;50.930;6.918;2022-12-26T01:14:24;2.90;;;2.20;;
11642;SDS011;5877;50.930;6.918;2022-12-26T01:20:30;2.90;;;1.40;;
11642;SDS011;5877;50.930;6.918;2022-12-26T01:26:38;3.37;;;1.77;;
11642;SDS011;5877;50.930;6.918;2022-12-26T01:47:06;1.97;;;1.50;;
11642;SDS011;5877;50.930;6.918;2022-12-26T01:51:59;4.17;;;1.80;;
11642;SDS011;5877;50.930;6.918;2022-12-26T01:56:55;2.90;;;1.63;;
11642;SDS011;5877;50.930;6.918;2022-12-26T02:01:48;3.00;;;1.40;;
11642;SDS011;5877;50.930;6.918;2022-12-26T02:06:43;4.03;;;2.23;;
11642;SDS011;5877;50.930;6.918;2022-12-26T02:11:35;4.97;;;1.50;;
11642;SDS011;5877;50.930;6.918;2022-12-26T02:16:30;4.07;;;1.70;;
11642;SDS011;5877;50.930;6.918;2022-12-26T02:28:00;4.53;;;1.47;;
11642;SDS011;5877;50.930;6.918;2022-12-26T02:43:43;2.10;;;1.30;;
11642;SDS011;5877;50.930;6.918;2022-12-26T02:49:15;2.90;;;1.30;;
11642;SDS011;5877;50.930;6.918;2022-12-26T03:05:26;1.90;;;1.30;;
11642;SDS011;5877;50.930;6.918;2022-12-26T03:10:42;2.77;;;1.43;;
11642;SDS011;5877;50.930;6.918;2022-12-26T03:15:54;1.63;;;1.00;;
11642;SDS011;5877;50.930;6.918;2022-12-26T03:21:30;2.63;;;1.50;;
11642;SDS011;5877;50.930;6.918;2022-12-26T03:26:31;3.47;;;1.23;;
11642;SDS011;5877;50.930;6.918;2022-12-26T03:31:32;3.20;;;1.60;;
11642;SDS011;5877;50.930;6.918;2022-12-26T03:41:57;2.00;;;1.27;;
11642;SDS011;5877;50.930;6.918;2022-12-26T03:52:38;4.50;;;1.50;;
11642;SDS011;5877;50.930;6.918;2022-12-26T03:58:00;1.67;;;1.10;;
11642;SDS011;5877;50.930;6.918;2022-12-26T04:03:16;2.73;;;1.40;;
11642;SDS011;5877;50.930;6.918;2022-12-26T04:08:34;3.30;;;1.37;;
11642;SDS011;5877;50.930;6.918;2022-12-26T04:25:17;3.20;;;1.33;;
11642;SDS011;5877;50.930;6.918;2022-12-26T04:30:41;2.47;;;1.53;;
11642;SDS011;5877;50.930;6.918;2022-12-26T04:36:00;3.43;;;1.33;;
11642;SDS011;5877;50.930;6.918;2022-12-26T04:41:16;3.37;;;1.90;;
11642;SDS011;5877;50.930;6.918;2022-12-26T04:46:29;2.33;;;1.27;;
11642;SDS011;5877;50.930;6.918;2022-12-26T04:51:23;3.60;;;1.27;;
11642;SDS011;5877;50.930;6.918;2022-12-26T04:56:14;2.30;;;1.30;;
11642;SDS011;5877;50.930;6.918;2022-12-26T05:01:07;1.87;;;1.40;;
11642;SDS011;5877;50.930;6.918;2022-12-26T05:06:17;2.67;;;1.20;;
11642;SDS011;5877;50.930;6.918;2022-12-26T05:11:28;2.10;;;1.07;;
11642;SDS011;5877;50.930;6.918;2022-12-26T05:16:21;1.80;;;1.30;;
11642;SDS011;5877;50.930;6.918;2022-12-26T05:21:33;2.23;;;1.00;;
11642;SDS011;5877;50.930;6.918;2022-12-26T05:26:43;2.10;;;1.00;;
11642;SDS011;5877;50.930;6.918;2022-12-26T05:31:54;2.73;;;1.10;;
11642;SDS011;5877;50.930;6.918;2022-12-26T05:36:48;2.00;;;0.97;;
11642;SDS011;5877;50.930;6.918;2022-12-26T05:41:42;1.10;;;0.80;;
11642;SDS011;5877;50.930;6.918;2022-12-26T05:46:35;1.00;;;0.60;;
11642;SDS011;5877;50.930;6.918;2022-12-26T05:51:28;0.80;;;0.50;;
11642;SDS011;5877;50.930;6.918;2022-12-26T05:56:20;0.97;;;0.60;;
11642;SDS011;5877;50.930;6.918;2022-12-26T06:01:14;1.10;;;0.80;;
11642;SDS011;5877;50.930;6.918;2022-12-26T06:06:08;0.87;;;0.40;;
11642;SDS011;5877;50.930;6.918;2022-12-26T06:11:02;1.00;;;0.57;;
11642;SDS011;5877;50.930;6.918;2022-12-26T06:15:55;1.63;;;0.90;;
11642;SDS011;5877;50.930;6.918;2022-12-26T06:20:46;1.30;;;0.80;;
11642;SDS011;5877;50.930;6.918;2022-12-26T06:25:38;2.53;;;0.63;;
11642;SDS011;5877;50.930;6.918;2022-12-26T06:30:30;0.90;;;0.60;;
11642;SDS011;5877;50.930;6.918;2022-12-26T06:35:22;0.80;;;0.60;;
11642;SDS011;5877;50.930;6.918;2022-12-26T06:40:13;0.60;;;0.60;;
11642;SDS011;5877;50.930;6.918;2022-12-26T06:45:05;0.50;;;0.50;;
11642;SDS011;5877;50.930;6.918;2022-12-26T06:49:57;1.10;;;0.60;;
11642;SDS011;5877;50.930;6.918;2022-12-26T06:54:48;1.53;;;0.80;;
11642;SDS011;5877;50.930;6.918;2022-12-26T06:59:40;2.40;;;0.60;;
11642;SDS011;5877;50.930;6.918;2022-12-26T07:04:31;1.47;;;0.77;;
11642;SDS011;5877;50.930;6.918;2022-12-26T07:09:23;1.40;;;0.77;;
11642;SDS011;5877;50.930;6.918;2022-12-26T07:14:23;3.80;;;0.90;;
11642;SDS011;5877;50.930;6.918;2022-12-26T07:19:17;1.63;;;0.70;;
11642;SDS011;5877;50.930;6.918;2022-12-26T07:24:14;1.23;;;0.40;;
11642;SDS011;5877;50.930;6.918;2022-12-26T07:29:10;1.30;;;0.40;;
11642;SDS011;5877;50.930;6.918;2022-12-26T07:34:02;1.40;;;0.60;;
11642;SDS011;5877;50.930;6.918;2022-12-26T07:38:54;0.93;;;0.63;;
11642;SDS011;5877;50.930;6.918;2022-12-26T07:43:46;0.70;;;0.47;;
11642;SDS011;5877;50.930;6.918;2022-12-26T07:48:37;1.43;;;0.50;;
11642;SDS011;5877;50.930;6.918;2022-12-26T07:53:29;0.50;;;0.50;;
11642;SDS011;5877;50.930;6.918;2022-12-26T07:58:20;1.60;;;0.60;;
11642;SDS011;5877;50.930;6.918;2022-12-26T08:03:12;0.97;;;0.53;;
11642;SDS011;5877;50.930;6.918;2022-12-26T08:08:04;0.70;;;0.50;;
11642;SDS011;5877;50.930;6.918;2022-12-26T08:12:55;2.30;;;0.60;;
11642;SDS011;5877;50.930;6.918;2022-12-26T08:17:47;0.83;;;0.50;;
11642;SDS011;5877;50.930;6.918;2022-12-26T08:22:38;1.07;;;0.70;;
11642;SDS011;5877;50.930;6.918;2022-12-26T08:27:30;2.10;;;0.73;;
11642;SDS011;5877;50.930;6.918;2022-12-26T08:32:22;1.33;;;0.73;;
11642;SDS011;5877;50.930;6.918;2022-12-26T08:37:13;2.20;;;0.80;;
11642;SDS011;5877;50.930;6.918;2022-12-26T08:42:05;2.67;;;1.00;;
11642;SDS011;5877;50.930;6.918;2022-12-26T08:46:57;0.83;;;0.70;;
11642;SDS011;5877;50.930;6.918;2022-12-26T08:51:48;0.70;;;0.63;;
11642;SDS011;5877;50.930;6.918;2022-12-26T08:56:40;1.23;;;0.93;;
11642;SDS011;5877;50.930;6.918;2022-12-26T09:01:31;2.10;;;0.87;;
11642;SDS011;5877;50.930;6.918;2022-12-26T09:06:24;1.83;;;0.80;;
11642;SDS011;5877;50.930;6.918;2022-12-26T09:11:18;1.10;;;0.60;;
11642;SDS011;5877;50.930;6.918;2022-12-26T09:16:13;1.73;;;0.80;;
11642;SDS011;5877;50.930;6.918;2022-12-26T09:21:10;0.77;;;0.60;;
11642;SDS011;5877;50.930;6.918;2022-12-26T09:26:14;1.73;;;0.80;;
11642;SDS011;5877;50.930;6.918;2022-12-26T09:31:27;1.97;;;0.77;;
11642;SDS011;5877;50.930;6.918;2022-12-26T09:36:23;2.13;;;0.90;;
11642;SDS011;5877;50.930;6.918;2022-12-26T09:52:07;2.13;;;0.83;;
11642;SDS011;5877;50.930;6.918;2022-12-26T09:57:19;2.47;;;1.23;;
11642;SDS011;5877;50.930;6.918;2022-12-26T10:02:20;2.97;;;1.07;;
11642;SDS011;5877;50.930;6.918;2022-12-26T10:28:16;2.40;;;0.80;;
11642;SDS011;5877;50.930;6.918;2022-12-26T10:33:22;1.47;;;0.83;;
11642;SDS011;5877;50.930;6.918;2022-12-26T10:38:34;3.60;;;1.33;;
11642;SDS011;5877;50.930;6.918;2022-12-26T10:43:30;3.07;;;1.23;;
11642;SDS011;5877;50.930;6.918;2022-12-26T10:48:25;2.33;;;1.10;;
11642;SDS011;5877;50.930;6.918;2022-12-26T10:53:18;2.37;;;1.00;;
11642;SDS011;5877;50.930;6.918;2022-12-26T10:58:15;2.83;;;0.77;;
11642;SDS011;5877;50.930;6.918;2022-12-26T11:03:11;1.73;;;0.80;;
11642;SDS011;5877;50.930;6.918;2022-12-26T11:08:13;0.93;;;0.73;;
11642;SDS011;5877;50.930;6.918;2022-12-26T11:13:06;5.10;;;1.27;;
11642;SDS011;5877;50.930;6.918;2022-12-26T11:23:23;2.10;;;0.87;;
11642;SDS011;5877;50.930;6.918;2022-12-26T11:28:32;2.73;;;1.70;;
11642;SDS011;5877;50.930;6.918;2022-12-26T11:33:35;2.30;;;1.20;;
11642;SDS011;5877;50.930;6.918;2022-12-26T11:38:39;2.87;;;1.40;;
11642;SDS011;5877;50.930;6.918;2022-12-26T11:43:37;2.70;;;1.40;;
11642;SDS011;5877;50.930;6.918;2022-12-26T11:48:29;2.27;;;1.27;;
11642;SDS011;5877;50.930;6.918;2022-12-26T11:53:21;3.00;;;1.10;;
11642;SDS011;5877;50.930;6.918;2022-12-26T12:03:19;3.43;;;1.43;;
11642;SDS011;5877;50.930;6.918;2022-12-26T12:08:18;5.23;;;1.20;;
11642;SDS011;5877;50.930;6.918;2022-12-26T12:13:26;2.67;;;1.03;;
11642;SDS011;5877;50.930;6.918;2022-12-26T12:29:00;3.43;;;1.00;;
11642;SDS011;5877;50.930;6.918;2022-12-26T12:39:31;3.27;;;1.73;;
11642;SDS011;5877;50.930;6.918;2022-12-26T13:10:20;4.77;;;2.77;;
11642;SDS011;5877;50.930;6.918;2022-12-26T13:15:26;7.27;;;3.63;;
11642;SDS011;5877;50.930;6.918;2022-12-26T13:20:39;5.50;;;1.90;;
11642;SDS011;5877;50.930;6.918;2022-12-26T13:25:36;7.70;;;3.40;;
11642;SDS011;5877;50.930;6.918;2022-12-26T13:30:35;5.50;;;2.53;;
11642;SDS011;5877;50.930;6.918;2022-12-26T13:40:47;3.20;;;2.50;;
11642;SDS011;5877;50.930;6.918;2022-12-26T13:55:47;4.03;;;2.50;;
11642;SDS011;5877;50.930;6.918;2022-12-26T14:00:43;6.50;;;3.83;;
11642;SDS011;5877;50.930;6.918;2022-12-26T14:05:47;3.47;;;2.47;;
11642;SDS011;5877;50.930;6.918;2022-12-26T14:11:27;4.47;;;2.23;;
11642;SDS011;5877;50.930;6.918;2022-12-26T14:21:30;4.47;;;2.23;;
11642;SDS011;5877;50.930;6.918;2022-12-26T14:37:13;3.23;;;2.37;;
11642;SDS011;5877;50.930;6.918;2022-12-26T14:42:19;3.07;;;2.27;;
11642;SDS011;5877;50.930;6.918;2022-12-26T14:47:42;4.63;;;1.80;;
11642;SDS011;5877;50.930;6.918;2022-12-26T14:52:36;4.60;;;2.27;;
11642;SDS011;5877;50.930;6.918;2022-12-26T15:02:36;3.60;;;1.27;;
11642;SDS011;5877;50.930;6.918;2022-12-26T15:12:51;2.80;;;1.43;;
11642;SDS011;5877;50.930;6.918;2022-12-26T15:39:28;3.63;;;1.60;;
11642;SDS011;5877;50.930;6.918;2022-12-26T15:44:44;4.93;;;1.53;;
11642;SDS011;5877;50.930;6.918;2022-12-26T15:49:52;2.37;;;1.50;;
11642;SDS011;5877;50.930;6.918;2022-12-26T16:15:14;6.40;;;2.47;;
11642;SDS011;5877;50.930;6.918;2022-12-26T16:20:18;6.13;;;2.20;;
11642;SDS011;5877;50.930;6.918;2022-12-26T16:25:31;6.37;;;3.00;;
11642;SDS011;5877;50.930;6.918;2022-12-26T16:30:29;6.30;;;2.70;;
11642;SDS011;5877;50.930;6.918;2022-12-26T16:35:27;6.33;;;3.43;;
11642;SDS011;5877;50.930;6.918;2022-12-26T16:40:29;7.43;;;2.90;;
11642;SDS011;5877;50.930;6.918;2022-12-26T16:45:22;9.43;;;3.90;;
11642;SDS011;5877;50.930;6.918;2022-12-26T16:50:16;4.57;;;2.73;;
11642;SDS011;5877;50.930;6.918;2022-12-26T16:55:24;7.10;;;4.17;;
11642;SDS011;5877;50.930;6.918;2022-12-26T17:00:24;12.10;;;7.10;;
11642;SDS011;5877;50.930;6.918;2022-12-26T17:05:20;16.80;;;8.03;;
11642;SDS011;5877;50.930;6.918;2022-12-26T17:10:21;5.53;;;3.80;;
11642;SDS011;5877;50.930;6.918;2022-12-26T17:15:25;7.33;;;3.00;;
11642;SDS011;5877;50.930;6.918;2022-12-26T17:35:22;4.13;;;2.70;;
11642;SDS011;5877;50.930;6.918;2022-12-26T17:45:21;5.90;;;3.03;;
11642;SDS011;5877;50.930;6.918;2022-12-26T17:50:14;2.90;;;2.60;;
11642;SDS011;5877;50.930;6.918;2022-12-26T17:55:10;4.70;;;2.73;;
11642;SDS011;5877;50.930;6.918;2022-12-26T18:00:12;4.73;;;3.60;;
11642;SDS011;5877;50.930;6.918;2022-12-26T18:05:09;7.03;;;3.10;;
11642;SDS011;5877;50.930;6.918;2022-12-26T18:10:01;6.83;;;3.67;;
11642;SDS011;5877;50.930;6.918;2022-12-26T18:14:53;8.27;;;3.27;;
11642;SDS011;5877;50.930;6.918;2022-12-26T18:19:52;9.23;;;3.73;;
11642;SDS011;5877;50.930;6.918;2022-12-26T18:24:44;6.00;;;2.60;;
11642;SDS011;5877;50.930;6.918;2022-12-26T18:29:35;8.13;;;2.70;;
11642;SDS011;5877;50.930;6.918;2022-12-26T18:34:30;6.50;;;2.90;;
11642;SDS011;5877;50.930;6.918;2022-12-26T18:39:22;4.80;;;3.40;;
11642;SDS011;5877;50.930;6.918;2022-12-26T18:44:15;9.10;;;2.10;;
11642;SDS011;5877;50.930;6.918;2022-12-26T18:49:09;3.00;;;2.10;;
11642;SDS011;5877;50.930;6.918;2022-12-26T18:54:01;4.30;;;2.03;;
11642;SDS011;5877;50.930;6.918;2022-12-26T18:58:54;3.93;;;2.00;;
11642;SDS011;5877;50.930;6.918;2022-12-26T19:03:48;4.27;;;2.50;;
11642;SDS011;5877;50.930;6.918;2022-12-26T19:08:40;7.57;;;3.70;;
11642;SDS011;5877;50.930;6.918;2022-12-26T19:13:32;4.13;;;3.07;;
11642;SDS011;5877;50.930;6.918;2022-12-26T19:18:26;5.10;;;2.40;;
11642;SDS011;5877;50.930;6.918;2022-12-26T19:23:18;6.27;;;1.97;;
11642;SDS011;5877;50.930;6.918;2022-12-26T19:28:10;3.97;;;2.33;;
11642;SDS011;5877;50.930;6.918;2022-12-26T19:33:02;3.30;;;2.43;;
11642;SDS011;5877;50.930;6.918;2022-12-26T19:37:56;7.33;;;2.00;;
11642;SDS011;5877;50.930;6.918;2022-12-26T19:42:48;4.90;;;2.40;;
11642;SDS011;5877;50.930;6.918;2022-12-26T19:47:40;5.10;;;2.10;;
11642;SDS011;5877;50.930;6.918;2022-12-26T19:52:33;4.93;;;2.00;;
11642;SDS011;5877;50.930;6.918;2022-12-26T19:57:26;6.00;;;1.83;;
11642;SDS011;5877;50.930;6.918;2022-12-26T20:02:18;7.43;;;2.60;;
11642;SDS011;5877;50.930;6.918;2022-12-26T20:07:11;6.87;;;2.40;;
11642;SDS011;5877;50.930;6.918;2022-12-26T20:12:02;5.97;;;2.10;;
11642;SDS011;5877;50.930;6.918;2022-12-26T20:16:58;6.30;;;2.10;;
11642;SDS011;5877;50.930;6.918;2022-12-26T20:21:56;5.17;;;2.60;;
11642;SDS011;5877;50.930;6.918;2022-12-26T20:26:48;7.73;;;2.47;;
11642;SDS011;5877;50.930;6.918;2022-12-26T20:31:40;6.10;;;2.13;;
11642;SDS011;5877;50.930;6.918;2022-12-26T20:36:33;7.17;;;2.03;;
11642;SDS011;5877;50.930;6.918;2022-12-26T20:41:27;6.47;;;1.97;;
11642;SDS011;5877;50.930;6.918;2022-12-26T20:46:20;9.50;;;1.97;;
11642;SDS011;5877;50.930;6.918;2022-12-26T20:51:20;5.60;;;2.10;;
11642;SDS011;5877;50.930;6.918;2022-12-26T20:56:14;4.17;;;1.80;;
11642;SDS011;5877;50.930;6.918;2022-12-26T21:01:06;11.90;;;2.67;;
11642;SDS011;5877;50.930;6.918;2022-12-26T21:06:05;16.30;;;2.67;;
11642;SDS011;5877;50.930;6.918;2022-12-26T21:11:11;5.00;;;1.90;;
11642;SDS011;5877;50.930;6.918;2022-12-26T21:16:18;7.70;;;2.30;;
11642;SDS011;5877;50.930;6.918;2022-12-26T21:21:31;6.50;;;2.60;;
11642;SDS011;5877;50.930;6.918;2022-12-26T21:26:25;7.00;;;1.93;;
11642;SDS011;5877;50.930;6.918;2022-12-26T21:31:17;3.70;;;1.60;;
11642;SDS011;5877;50.930;6.918;2022-12-26T21:36:09;6.77;;;2.10;;
11642;SDS011;5877;50.930;6.918;2022-12-26T21:41:05;7.33;;;2.20;;
11642;SDS011;5877;50.930;6.918;2022-12-26T21:46:04;5.70;;;1.77;;
11642;SDS011;5877;50.930;6.918;2022-12-26T21:50:59;6.67;;;2.30;;
11642;SDS011;5877;50.930;6.918;2022-12-26T21:55:50;7.03;;;2.07;;
11642;SDS011;5877;50.930;6.918;2022-12-26T22:00:42;5.97;;;2.47;;
11642;SDS011;5877;50.930;6.918;2022-12-26T22:05:36;4.13;;;2.40;;
11642;SDS011;5877;50.930;6.918;2022-12-26T22:10:31;6.53;;;2.00;;
11642;SDS011;5877;50.930;6.918;2022-12-26T22:15:45;6.10;;;2.10;;
11642;SDS011;5877;50.930;6.918;2022-12-26T22:20:54;3.97;;;2.20;;
11642;SDS011;5877;50.930;6.918;2022-12-26T22:25:52;7.23;;;2.20;;
11642;SDS011;5877;50.930;6.918;2022-12-26T22:30:46;6.80;;;2.07;;
11642;SDS011;5877;50.930;6.918;2022-12-26T22:35:41;3.90;;;2.20;;
11642;SDS011;5877;50.930;6.918;2022-12-26T22:40:33;6.13;;;2.07;;
11642;SDS011;5877;50.930;6.918;2022-12-26T22:45:24;8.80;;;2.30;;
11642;SDS011;5877;50.930;6.918;2022-12-26T22:50:16;7.87;;;2.33;;
11642;SDS011;5877;50.930;6.918;2022-12-26T22:55:08;7.87;;;2.30;;
11642;SDS011;5877;50.930;6.918;2022-12-26T23:00:04;5.33;;;1.77;;
11642;SDS011;5877;50.930;6.918;2022-12-26T23:05:00;5.13;;;1.70;;
11642;SDS011;5877;50.930;6.918;2022-12-26T23:09:52;11.53;;;2.20;;
11642;SDS011;5877;50.930;6.918;2022-12-26T23:14:43;2.90;;;1.87;;
11642;SDS011;5877;50.930;6.918;2022-12-26T23:24:52;5.47;;;1.63;;
11642;SDS011;5877;50.930;6.918;2022-12-26T23:29:43;5.63;;;1.37;;
11642;SDS011;5877;50.930;6.918;2022-12-26T23:34:54;5.43;;;1.93;;
11642;SDS011;5877;50.930;6.918;2022-12-26T23:39:45;5.30;;;1.50;;
11642;SDS011;5877;50.930;6.918;2022-12-26T23:44:37;5.80;;;1.70;;
11642;SDS011;5877;50.930;6.918;2022-12-26T23:49:28;4.90;;;1.50;;
11642;SDS011;5877;50.930;6.918;2022-12-26T23:54:20;4.43;;;1.33;;
11642;SDS011;5877;50.930;6.918;2022-12-26T23:59:14;7.47;;;1.67;;
